Time;durP1;ratioP1;P1;durP2;ratioP2;P2;SDS_P1;SDS_P2;PMS_P1;PMS_P2;Temp;Humidity;BMP_temperature;BMP_pressure;BME280_temperature;BME280_humidity;BME280_pressure;Samples;Min_cycle;Max_cycle;Signal;HPM_P1;HPM_P2
2022/09/26 00:01:24;;;;;;;1999.90;999.90;;;;;;;11.99;100.00;92970.53;6270913;22;20161;-64
2022/09/26 00:03:52;;;;;;;1999.90;999.90;;;;;;;11.97;100.00;92972.97;6271235;22;20162;-63
2022/09/26 00:06:19;;;;;;;1999.90;999.90;;;;;;;12.00;100.00;92975.53;6245444;22;20169;-64
2022/09/26 00:08:46;;;;;;;1999.90;999.90;;;;;;;12.03;100.00;92971.09;6245761;22;20192;-65
2022/09/26 00:11:14;;;;;;;1999.90;999.90;;;;;;;12.03;100.00;92971.09;6245615;23;20246;-64
2022/09/26 00:13:40;;;;;;;1999.90;999.90;;;;;;;12.04;100.00;92967.13;6271032;22;20185;-65
2022/09/26 00:16:06;;;;;;;1999.90;999.90;;;;;;;12.05;100.00;92963.94;6245468;22;20164;-67
2022/09/26 00:18:32;;;;;;;1999.90;999.90;;;;;;;12.04;100.00;92967.13;6271143;22;20184;-64
2022/09/26 00:21:03;;;;;;;1999.90;999.90;;;;;;;12.02;100.00;92964.13;6245676;22;20179;-65
2022/09/26 00:23:29;;;;;;;1999.90;999.90;;;;;;;12.02;100.00;92969.59;6245646;23;20175;-65
2022/09/26 00:25:57;;;;;;;1999.90;999.90;;;;;;;11.97;100.00;92962.81;6270975;22;20169;-64
2022/09/26 00:28:23;;;;;;;1999.90;999.90;;;;;;;12.00;100.00;92963.84;6271522;22;20170;-64
2022/09/26 00:30:48;;;;;;;1999.90;999.90;;;;;;;12.00;100.00;92958.34;6245499;22;20170;-63
2022/09/26 00:33:14;;;;;;;1999.90;999.90;;;;;;;12.03;100.00;92960.94;6245853;22;20490;-63
2022/09/26 00:35:39;;;;;;;1999.90;999.90;;;;;;;12.04;100.00;92959.69;6270915;22;20531;-65
2022/09/26 00:38:05;;;;;;;1999.90;999.90;;;;;;;12.04;100.00;92958.94;6271002;22;20165;-64
2022/09/26 00:40:31;;;;;;;1999.90;999.90;;;;;;;12.03;100.00;92962.91;6271492;22;20289;-65
2022/09/26 00:42:58;;;;;;;1999.90;999.90;;;;;;;12.01;100.00;92962.59;6245944;22;20530;-64
2022/09/26 00:45:29;;;;;;;1999.90;999.90;;;;;;;12.05;100.00;92960.44;6245643;22;20157;-64
2022/09/26 00:47:59;;;;;;;1999.90;999.90;;;;;;;12.03;100.00;92963.66;6245589;23;20163;-63
2022/09/26 00:50:39;;;;;;;1999.90;999.90;;;;;;;12.05;100.00;92952.22;6245411;23;20201;-63
2022/09/26 00:53:07;;;;;;;1999.90;999.90;;;;;;;12.05;100.00;92957.69;6245442;22;20165;-65
2022/09/26 00:55:41;;;;;;;1999.90;999.90;;;;;;;12.05;100.00;92954.97;6270772;22;20218;-64
2022/09/26 00:58:15;;;;;;;1999.90;999.90;;;;;;;12.04;100.00;92947.97;6245583;23;20169;-66
2022/09/26 01:00:42;;;;;;;1999.90;999.90;;;;;;;12.01;100.00;92954.41;6244699;23;20226;-65
2022/09/26 01:03:08;;;;;;;1999.90;999.90;;;;;;;11.98;100.00;92952.63;6270852;22;20558;-65
2022/09/26 01:05:34;;;;;;;1999.90;999.90;;;;;;;11.97;100.00;92945.63;6270644;22;20159;-64
2022/09/26 01:08:01;;;;;;;1999.90;999.90;;;;;;;11.91;100.00;92950.25;6245264;23;20218;-64
2022/09/26 01:10:28;;;;;;;1999.90;999.90;;;;;;;11.93;100.00;92945.81;6245087;22;20241;-62
2022/09/26 01:12:56;;;;;;;1999.90;999.90;;;;;;;11.92;100.00;92943.56;6245326;22;20162;-61
2022/09/26 01:15:21;;;;;;;1999.90;999.90;;;;;;;11.92;100.00;92943.56;6270446;22;20260;-63
2022/09/26 01:17:47;;;;;;;1999.90;999.90;;;;;;;11.88;100.00;92943.00;6245717;22;20196;-63
2022/09/26 01:20:21;;;;;;;1999.90;999.90;;;;;;;11.89;100.00;92944.50;6245662;22;20199;-63
2022/09/26 01:23:24;;;;;;;1999.90;999.90;;;;;;;11.88;100.00;92943.00;6271301;22;20165;-63
2022/09/26 01:26:17;;;;;;;1999.90;999.90;;;;;;;11.87;100.00;92936.03;6270563;22;20177;-61
2022/09/26 01:29:01;;;;;;;1999.90;999.90;;;;;;;11.86;100.00;92937.22;6271420;22;20177;-63
2022/09/26 01:35:30;;;;;;;1999.90;999.90;;;;;;;11.90;100.00;92929.59;6154033;23;20202;-63
2022/09/26 01:38:18;;;;;;;1999.90;999.90;;;;;;;11.84;100.00;92936.97;6153809;23;20261;-63
2022/09/26 01:40:51;;;;;;;1999.90;999.90;;;;;;;11.88;100.00;92923.84;6234161;23;20220;-62
2022/09/26 01:43:41;;;;;;;1999.90;999.90;;;;;;;11.91;100.00;92925.66;6244554;23;20248;-63
2022/09/26 01:46:22;;;;;;;1999.90;999.90;;;;;;;11.92;100.00;92927.16;6245417;23;20170;-63
2022/09/26 01:48:58;;;;;;;1999.90;999.90;;;;;;;11.86;100.00;92929.03;6244814;23;20248;-63
2022/09/26 01:51:37;;;;;;;1999.90;999.90;;;;;;;11.83;100.00;92929.97;6244715;23;20190;-63
2022/09/26 01:54:13;;;;;;;1999.90;999.90;;;;;;;11.82;100.00;92936.66;6244705;23;20183;-63
2022/09/26 01:56:41;;;;;;;1999.90;999.90;;;;;;;11.81;100.00;92935.16;6245419;23;20257;-60
2022/09/26 01:59:12;;;;;;;1999.90;999.90;;;;;;;11.82;100.00;92928.47;6244605;22;20229;-61
2022/09/26 02:01:42;;;;;;;1999.90;999.90;;;;;;;11.80;100.00;92928.19;6245339;23;20181;-60
2022/09/26 02:04:17;;;;;;;1999.90;999.90;;;;;;;11.80;100.00;92925.47;6270561;22;20205;-60
2022/09/26 02:06:50;;;;;;;1999.90;999.90;;;;;;;11.81;100.00;92922.25;6270177;22;20229;-60
2022/09/26 02:09:26;;;;;;;1999.90;999.90;;;;;;;11.80;100.00;92936.41;6270769;22;20166;-60
2022/09/26 02:11:55;;;;;;;1999.90;999.90;;;;;;;11.77;100.00;92937.34;6244663;23;20166;-60
2022/09/26 02:14:30;;;;;;;1999.90;999.90;;;;;;;11.78;100.00;92934.13;6245399;23;20190;-61
2022/09/26 02:17:02;;;;;;;1999.90;999.90;;;;;;;11.79;100.00;92940.34;6246084;23;20164;-61
2022/09/26 02:19:38;;;;;;;1999.90;999.90;;;;;;;11.80;100.00;92936.41;6245886;23;20207;-60
2022/09/26 02:22:04;;;;;;;1999.90;999.90;;;;;;;11.78;100.00;92927.91;6271963;22;20210;-60
2022/09/26 02:24:29;;;;;;;1999.90;999.90;;;;;;;11.79;100.00;92934.88;6246251;23;20510;-60
2022/09/26 02:26:55;;;;;;;1999.90;999.90;;;;;;;11.80;100.00;92936.41;6246013;22;20171;-60
2022/09/26 02:29:20;;;;;;;1999.90;999.90;;;;;;;11.78;100.00;92934.13;6271717;22;20155;-60
2022/09/26 02:32:01;;;;;;;1999.90;999.90;;;;;;;11.79;100.00;92923.94;6271461;22;20173;-60
2022/09/26 02:34:27;;;;;;;1999.90;999.90;;;;;;;11.82;100.00;92928.47;6246446;23;20264;-60
2022/09/26 02:36:54;;;;;;;1999.90;999.90;;;;;;;11.81;100.00;92930.47;6245910;23;20167;-60
2022/09/26 02:39:20;;;;;;;1999.90;999.90;;;;;;;11.78;100.00;92939.59;6246412;22;20200;-60
2022/09/26 02:42:06;;;;;;;1999.90;999.90;;;;;;;11.77;100.00;92942.81;6272285;22;20161;-60
2022/09/26 02:44:47;;;;;;;1999.90;999.90;;;;;;;11.76;100.00;92939.31;6246644;23;20216;-60
2022/09/26 02:47:35;;;;;;;1999.90;999.90;;;;;;;11.76;100.00;92935.84;6246230;23;20172;-60
2022/09/26 02:50:24;;;;;;;1999.90;999.90;;;;;;;11.71;100.00;92936.47;6246501;23;20275;-59
2022/09/26 02:52:55;;;;;;;1999.90;999.90;;;;;;;11.72;100.00;92940.69;6188053;23;20249;-59
2022/09/26 02:55:44;;;;;;;1999.90;999.90;;;;;;;11.70;100.00;92937.69;6271806;22;20186;-60
2022/09/26 02:58:21;;;;;;;1999.90;999.90;;;;;;;11.69;100.00;92928.72;6271819;22;20171;-60
2022/09/26 03:01:00;;;;;;;1999.90;999.90;;;;;;;11.70;100.00;92934.97;6246266;23;20227;-59
2022/09/26 03:03:36;;;;;;;1999.90;999.90;;;;;;;11.65;100.00;92943.84;6246033;23;20166;-60
2022/09/26 03:06:06;;;;;;;1999.90;999.90;;;;;;;11.61;100.00;92940.50;6271534;22;20165;-59
2022/09/26 03:08:38;;;;;;;1999.90;999.90;;;;;;;11.62;100.00;92947.50;6246488;22;20264;-60
2022/09/26 03:11:07;;;;;;;1999.90;999.90;;;;;;;11.60;100.00;92949.91;6246090;23;20158;-59
2022/09/26 03:13:38;;;;;;;1999.90;999.90;;;;;;;11.60;100.00;92944.44;6245546;22;20674;-59
2022/09/26 03:16:05;;;;;;;1999.90;999.90;;;;;;;11.57;100.00;92945.38;6245880;23;20162;-59
2022/09/26 03:18:50;;;;;;;1999.90;999.90;;;;;;;11.55;100.00;92942.38;6245966;23;20686;-59
2022/09/26 03:21:16;;;;;;;1999.90;999.90;;;;;;;11.51;100.00;92945.25;6245523;23;20173;-60
2022/09/26 03:23:41;;;;;;;1999.90;999.90;;;;;;;11.49;100.00;92945.00;6271133;22;20157;-60
2022/09/26 03:26:13;;;;;;;1999.90;999.90;;;;;;;11.45;100.00;92944.44;6245615;23;20495;-61
2022/09/26 03:28:40;;;;;;;1999.90;999.90;;;;;;;11.44;100.00;92942.16;6246393;22;20237;-60
2022/09/26 03:31:06;;;;;;;1999.90;999.90;;;;;;;11.41;100.00;92937.63;6245749;22;20236;-59
2022/09/26 03:33:31;;;;;;;1999.90;999.90;;;;;;;11.41;100.00;92937.63;6271688;22;20166;-59
2022/09/26 03:35:58;;;;;;;1999.90;999.90;;;;;;;11.39;100.00;92929.91;6245735;22;20255;-60
2022/09/26 03:38:25;;;;;;;1999.90;999.90;;;;;;;11.40;100.00;92925.19;6245851;22;20232;-60
2022/09/26 03:40:51;;;;;;;1999.90;999.90;;;;;;;11.40;100.00;92919.72;6246139;23;20527;-60
2022/09/26 03:43:16;;;;;;;1999.90;999.90;;;;;;;11.42;100.00;92917.25;6271504;22;20165;-59
2022/09/26 03:45:42;;;;;;;1999.90;999.90;;;;;;;11.41;100.00;92921.22;6271008;22;20547;-60
2022/09/26 03:48:07;;;;;;;1999.90;999.90;;;;;;;11.39;100.00;92912.72;6271350;22;20215;-61
2022/09/26 03:50:33;;;;;;;1999.90;999.90;;;;;;;11.41;100.00;92904.84;6245550;23;20189;-59
2022/09/26 03:52:59;;;;;;;1999.90;999.90;;;;;;;11.47;100.00;92902.97;6271698;22;20160;-59
2022/09/26 03:55:25;;;;;;;1999.90;999.90;;;;;;;11.48;100.00;92899.00;6246067;22;20204;-60
2022/09/26 03:57:50;;;;;;;1999.90;999.90;;;;;;;11.50;100.00;92894.56;6245164;23;20507;-60
2022/09/26 04:00:16;;;;;;;1999.90;999.90;;;;;;;11.49;100.00;92895.81;6271324;22;20169;-61
2022/09/26 04:02:42;;;;;;;1999.90;999.90;;;;;;;11.53;100.00;92898.34;6271703;22;20158;-60
2022/09/26 04:05:08;;;;;;;1999.90;999.90;;;;;;;11.50;100.00;92896.53;6246037;23;20165;-61
2022/09/26 04:07:33;;;;;;;1999.90;999.90;;;;;;;11.53;100.00;92895.59;6245581;23;20168;-60
2022/09/26 04:09:58;;;;;;;1999.90;999.90;;;;;;;11.54;100.00;92886.19;6270823;22;20165;-59
2022/09/26 04:12:24;;;;;;;1999.90;999.90;;;;;;;11.54;100.00;92886.94;6270910;22;20157;-60
2022/09/26 04:14:49;;;;;;;1999.90;999.90;;;;;;;11.57;100.00;92887.97;6270895;22;20248;-60
2022/09/26 04:17:15;;;;;;;1999.90;999.90;;;;;;;11.54;100.00;92880.75;6270600;22;20237;-60
2022/09/26 04:19:40;;;;;;;1999.90;999.90;;;;;;;11.53;100.00;92879.22;6246063;22;20159;-60
2022/09/26 04:22:09;;;;;;;1999.90;999.90;;;;;;;11.54;100.00;92886.19;6271052;22;20162;-60
2022/09/26 04:24:34;;;;;;;1999.90;999.90;;;;;;;11.54;100.00;92876.00;6271100;22;20228;-61
2022/09/26 04:26:59;;;;;;;1999.90;999.90;;;;;;;11.55;100.00;92876.78;6271064;22;20167;-59
2022/09/26 04:29:26;;;;;;;1999.90;999.90;;;;;;;11.58;100.00;92875.84;6271280;22;20162;-59
2022/09/26 04:31:52;;;;;;;1999.90;999.90;;;;;;;11.58;100.00;92867.63;6245420;22;20605;-59
2022/09/26 04:34:17;;;;;;;1999.90;999.90;;;;;;;11.55;100.00;92871.31;6271069;22;20233;-60
2022/09/26 04:36:43;;;;;;;1999.90;999.90;;;;;;;11.52;100.00;92866.78;6244797;22;20169;-59
2022/09/26 04:39:08;;;;;;;1999.90;999.90;;;;;;;11.50;100.00;92869.22;6270582;22;20212;-61
2022/09/26 04:41:34;;;;;;;1999.90;999.90;;;;;;;11.46;100.00;92868.66;6271003;22;20176;-61
2022/09/26 04:44:00;;;;;;;1999.90;999.90;;;;;;;11.44;100.00;92860.91;6245125;22;20172;-62
2022/09/26 04:46:28;;;;;;;1999.90;999.90;;;;;;;11.48;100.00;92863.47;6271043;22;20592;-64
2022/09/26 04:48:56;;;;;;;1999.90;999.90;;;;;;;11.50;100.00;92855.53;6270862;22;20242;-66
2022/09/26 04:51:23;;;;;;;1999.90;999.90;;;;;;;11.50;100.00;92861.78;6245025;23;20193;-65
2022/09/26 04:53:49;;;;;;;1999.90;999.90;;;;;;;11.50;100.00;92853.56;6245275;23;20662;-63
2022/09/26 04:56:16;;;;;;;1999.90;999.90;;;;;;;11.50;100.00;92855.53;6271225;22;20170;-65
2022/09/26 04:58:42;;;;;;;1999.90;999.90;;;;;;;11.47;100.00;92859.97;6245346;22;20162;-63
2022/09/26 05:01:14;;;;;;;1999.90;999.90;;;;;;;11.50;100.00;92858.28;6271085;22;20161;-63
2022/09/26 05:03:40;;;;;;;1999.90;999.90;;;;;;;11.51;100.00;92854.34;6245716;23;20161;-62
2022/09/26 05:06:07;;;;;;;1999.90;999.90;;;;;;;11.51;100.00;92848.88;6244963;22;20599;-62
2022/09/26 05:08:34;;;;;;;1999.90;999.90;;;;;;;11.51;100.00;92843.41;6245035;23;20602;-61
2022/09/26 05:11:01;;;;;;;1999.90;999.90;;;;;;;11.48;100.00;92847.06;6245010;23;20702;-64
2022/09/26 05:13:27;;;;;;;1999.90;999.90;;;;;;;11.46;100.00;92846.78;6245095;22;20169;-63
2022/09/26 05:15:54;;;;;;;1999.90;999.90;;;;;;;11.46;100.00;92835.84;6270189;22;20183;-61
2022/09/26 05:18:22;;;;;;;1999.90;999.90;;;;;;;11.43;100.00;92848.47;6245447;22;20217;-61
2022/09/26 05:20:48;;;;;;;1999.90;999.90;;;;;;;11.46;100.00;92841.31;6245608;22;20158;-63
2022/09/26 05:26:18;;;;;;;1999.90;999.90;;;;;;;11.44;100.00;92849.25;6244892;23;20162;-63
2022/09/26 05:26:20;;;;;;;1999.90;999.90;;;;;;;11.48;100.00;92845.09;6246237;22;20165;-63
2022/09/26 05:28:55;;;;;;;1999.90;999.90;;;;;;;11.51;100.00;92843.41;6271052;22;20162;-64
2022/09/26 05:31:23;;;;;;;1999.90;999.90;;;;;;;11.46;100.00;92847.53;6245263;23;20163;-65
2022/09/26 05:33:50;;;;;;;1999.90;999.90;;;;;;;11.48;100.00;92838.88;6244795;23;20169;-64
2022/09/26 05:36:17;;;;;;;1999.90;999.90;;;;;;;11.52;100.00;92839.44;6244939;22;20209;-66
2022/09/26 05:38:42;;;;;;;1999.90;999.90;;;;;;;11.53;100.00;92836.25;6244821;22;20164;-68
2022/09/26 05:41:08;;;;;;;1999.90;999.90;;;;;;;11.48;100.00;92839.63;6244872;22;20169;-66
2022/09/26 05:43:33;;;;;;;1999.90;999.90;;;;;;;11.56;100.00;92832.56;6270152;22;20204;-66
2022/09/26 05:46:04;;;;;;;1999.90;999.90;;;;;;;11.53;100.00;92830.78;6245251;22;20170;-65
2022/09/26 05:48:32;;;;;;;1999.90;999.90;;;;;;;11.52;100.00;92833.97;6245794;23;20710;-66
2022/09/26 05:51:12;;;;;;;1999.90;999.90;;;;;;;11.54;100.00;92820.59;6271397;22;20286;-66
2022/09/26 05:53:42;;;;;;;1999.90;999.90;;;;;;;11.58;100.00;92824.63;6246348;23;20174;-64
2022/09/26 05:56:12;;;;;;;1999.90;999.90;;;;;;;11.63;100.00;92821.28;6245924;22;20180;-61
2022/09/26 05:58:39;;;;;;;1999.90;999.90;;;;;;;11.65;100.00;92815.34;6245908;23;20168;-63
2022/09/26 06:01:10;;;;;;;1999.90;999.90;;;;;;;11.69;100.00;92818.66;6271606;22;20268;-62
2022/09/26 06:03:36;;;;;;;1999.90;999.90;;;;;;;11.70;100.00;92811.94;6245802;23;20197;-65
2022/09/26 06:06:04;;;;;;;1999.90;999.90;;;;;;;11.68;100.00;92815.16;6246525;23;20163;-63
2022/09/26 06:08:30;;;;;;;1999.90;999.90;;;;;;;11.74;100.00;92812.50;6246026;23;20159;-62
2022/09/26 06:11:11;;;;;;;1999.90;999.90;;;;;;;11.79;100.00;92801.66;6246963;22;20233;-64
2022/09/26 06:13:37;;;;;;;1999.90;999.90;;;;;;;11.75;100.00;92805.78;6246283;23;20181;-61
2022/09/26 06:16:10;;;;;;;1999.90;999.90;;;;;;;11.74;100.00;92815.25;6246486;23;20548;-61
2022/09/26 06:18:37;;;;;;;1999.90;999.90;;;;;;;11.74;100.00;92815.25;6245914;23;20170;-61
2022/09/26 06:21:04;;;;;;;1999.90;999.90;;;;;;;11.73;100.00;92808.28;6245708;23;20169;-61
2022/09/26 06:23:30;;;;;;;1999.90;999.90;;;;;;;11.79;100.00;92815.31;6245962;23;20158;-60
2022/09/26 06:25:57;;;;;;;1999.90;999.90;;;;;;;11.87;100.00;92805.50;6246014;22;20167;-61
2022/09/26 06:28:23;;;;;;;1999.90;999.90;;;;;;;12.02;100.00;92797.28;6245975;23;20158;-63
2022/09/26 06:30:49;;;;;;;1999.90;999.90;;;;;;;12.13;100.00;92789.97;6245306;22;20249;-62
2022/09/26 06:33:14;;;;;;;1999.90;999.90;;;;;;;12.33;100.00;92791.97;6271147;22;20543;-61
2022/09/26 06:35:39;;;;;;;1999.90;999.90;;;;;;;12.38;100.00;92785.81;6271252;22;20193;-62
2022/09/26 06:38:05;;;;;;;1999.90;999.90;;;;;;;12.39;100.00;92790.06;6271161;22;20199;-63
2022/09/26 06:40:32;;;;;;;1999.90;999.90;;;;;;;12.34;100.00;92798.94;6245759;23;20594;-62
2022/09/26 06:42:58;;;;;;;1999.90;999.90;;;;;;;12.33;100.00;92802.91;6245676;22;20168;-62
2022/09/26 06:45:23;;;;;;;1999.90;999.90;;;;;;;12.32;100.00;92801.44;6245400;23;20162;-62
2022/09/26 06:47:48;;;;;;;1999.90;999.90;;;;;;;12.28;100.00;92811.81;6271069;22;20171;-61
2022/09/26 06:50:14;;;;;;;1999.90;999.90;;;;;;;12.33;100.00;92808.41;6270788;22;20252;-61
2022/09/26 06:52:41;;;;;;;1999.90;999.90;;;;;;;12.35;100.00;92816.91;6271245;22;20163;-61
2022/09/26 06:55:08;;;;;;;1999.90;999.90;;;;;;;12.38;100.00;92815.91;6271302;22;20193;-61
2022/09/26 06:57:39;;;;;;;1999.90;999.90;;;;;;;12.42;100.00;92824.72;6246454;23;20578;-62
2022/09/26 07:00:12;;;;;;;1999.90;999.90;;;;;;;12.47;100.00;92824.78;6245470;22;20179;-61
2022/09/26 07:02:37;;;;;;;1999.90;999.90;;;;;;;12.45;100.00;92842.88;6245838;23;20163;-61
2022/09/26 07:05:04;;;;;;;1999.90;999.90;;;;;;;12.33;100.00;92846.72;6271382;22;20175;-60
2022/09/26 07:07:38;;;;;;;1999.90;999.90;;;;;;;12.32;100.00;92856.16;6245503;23;20197;-61
2022/09/26 07:10:04;;;;;;;1999.90;999.90;;;;;;;12.30;100.00;92858.59;6246025;23;20163;-61
2022/09/26 07:12:30;;;;;;;1999.90;999.90;;;;;;;12.31;100.00;92860.13;6271035;22;20170;-62
2022/09/26 07:14:57;;;;;;;1999.90;999.90;;;;;;;12.25;100.00;92862.78;6271516;22;20195;-62
2022/09/26 07:17:23;;;;;;;1999.90;999.90;;;;;;;12.27;100.00;92876.72;6270668;22;20160;-61
2022/09/26 07:19:51;;;;;;;1999.90;999.90;;;;;;;12.33;100.00;92879.53;6271289;22;20164;-60
2022/09/26 07:22:17;;;;;;;1999.90;999.90;;;;;;;12.42;100.00;92871.97;6245573;23;20199;-63
2022/09/26 07:24:45;;;;;;;1999.90;999.90;;;;;;;12.39;100.00;92872.19;6245385;23;20188;-63
2022/09/26 07:27:10;;;;;;;1999.90;999.90;;;;;;;12.42;100.00;92871.25;6245471;22;20606;-63
2022/09/26 07:29:36;;;;;;;1999.90;999.90;;;;;;;12.37;100.00;92883.59;6271604;22;20233;-63
2022/09/26 07:32:01;;;;;;;1999.90;999.90;;;;;;;12.36;100.00;92887.56;6271324;22;20215;-63
2022/09/26 07:34:28;;;;;;;1999.90;999.90;;;;;;;12.38;100.00;92887.06;6271030;22;20188;-63
2022/09/26 07:36:58;;;;;;;1999.90;999.90;;;;;;;12.33;100.00;92896.72;6271183;22;20545;-63
2022/09/26 07:39:23;;;;;;;1999.90;999.90;;;;;;;12.30;100.00;92896.91;6245478;23;20160;-63
2022/09/26 07:41:49;;;;;;;1999.90;999.90;;;;;;;12.34;100.00;92889.25;6271116;22;20171;-62
2022/09/26 07:44:14;;;;;;;1999.90;999.90;;;;;;;12.39;100.00;92896.81;6270895;22;20554;-62
2022/09/26 07:52:13;;;;;;;1999.90;999.90;;;;;;;12.68;100.00;92886.53;6246983;23;20497;-63
2022/09/26 07:54:40;;;;;;;1999.90;999.90;;;;;;;12.88;100.00;92880.31;6245420;23;20185;-62
2022/09/26 07:57:06;;;;;;;1999.90;999.90;;;;;;;13.05;100.00;92871.09;6245581;23;20245;-62
2022/09/26 07:59:34;;;;;;;1999.90;999.90;;;;;;;13.32;100.00;92858.94;6270938;22;20192;-62
2022/09/26 08:02:01;;;;;;;1999.90;999.90;;;;;;;13.70;100.00;92839.38;6271477;22;20356;-62
2022/09/26 08:04:26;;;;;;;1999.90;999.90;;;;;;;14.03;100.00;92839.66;6245307;23;20176;-62
2022/09/26 08:06:54;;;;;;;1999.90;999.90;;;;;;;14.40;100.00;92837.72;6245728;23;20560;-63
2022/09/26 08:09:19;;;;;;;1999.90;999.90;;;;;;;14.57;100.00;92844.03;6270954;22;20626;-63
2022/09/26 08:11:45;;;;;;;1999.90;999.90;;;;;;;14.48;100.00;92862.69;6245268;23;20161;-63
2022/09/26 08:14:11;;;;;;;1999.90;999.90;;;;;;;14.46;100.00;92876.91;6270793;22;20181;-62
2022/09/26 08:16:40;;;;;;;1999.90;999.90;;;;;;;14.28;100.00;92910.22;6245514;22;20179;-62
2022/09/26 08:19:07;;;;;;;1999.90;999.90;;;;;;;14.45;100.00;92926.84;6270948;22;20244;-63
2022/09/26 08:21:33;;;;;;;1999.90;999.90;;;;;;;14.64;100.00;92950.72;6246003;22;20160;-62
2022/09/26 08:23:58;;;;;;;1999.90;999.90;;;;;;;14.72;100.00;92971.00;6245809;22;20161;-65
2022/09/26 08:26:24;;;;;;;1999.90;999.90;;;;;;;14.99;100.00;92995.19;6245141;23;20188;-63
2022/09/26 08:28:49;;;;;;;1999.90;999.90;;;;;;;15.29;100.00;93021.13;6244428;23;20204;-63
2022/09/26 08:31:16;;;;;;;1999.90;999.90;;;;;;;15.21;100.00;93066.81;6219248;23;20161;-62
2022/09/26 08:33:42;;;;;;;1999.90;999.90;;;;;;;15.32;100.00;93110.91;6218986;23;20169;-62
2022/09/26 08:36:10;;;;;;;1999.90;999.90;;;;;;;16.40;100.00;93136.03;6219562;23;20184;-63
2022/09/26 08:38:37;;;;;;;1999.90;999.90;;;;;;;18.21;100.00;93142.22;6219153;23;20157;-63
2022/09/26 08:41:05;;;;;;;1999.90;999.90;;;;;;;19.94;100.00;93172.69;6218782;23;20256;-64
2022/09/26 08:43:33;;;;;;;1999.90;999.90;;;;;;;19.94;100.00;93172.69;6219509;23;20169;-63
2022/09/26 08:46:44;;;;;;;1999.90;999.90;;;;;;;20.69;100.00;93221.59;6218719;23;20161;-63
2022/09/26 08:49:38;;;;;;;1999.90;999.90;;;;;;;19.72;100.00;93253.19;6219444;23;20191;-63
2022/09/26 08:52:16;;;;;;;1999.90;999.90;;;;;;;18.62;100.00;93298.66;6211375;23;20161;-61
2022/09/26 08:54:45;;;;;;;1999.90;999.90;;;;;;;18.10;100.00;93308.00;6218886;23;20279;-61
2022/09/26 08:57:35;;;;;;;1999.90;999.90;;;;;;;17.80;100.00;93323.53;6219240;23;20168;-61
2022/09/26 09:00:14;;;;;;;1999.90;999.90;;;;;;;17.69;100.00;93340.06;6245429;23;20169;-61
2022/09/26 09:03:03;;;;;;;1999.90;999.90;;;;;;;18.51;100.00;93322.84;6245590;23;20165;-62
2022/09/26 09:05:40;;;;;;;1999.90;999.90;;;;;;;19.16;100.00;93307.34;6246006;23;20236;-61
2022/09/26 09:08:21;;;;;;;1999.90;999.90;;;;;;;18.74;100.00;93338.13;6271331;22;20172;-62
2022/09/26 09:11:14;;;;;;;1999.90;999.90;;;;;;;18.95;100.00;93331.06;6245115;23;20203;-61
2022/09/26 09:14:25;;;;;;;1999.90;999.90;;;;;;;18.75;100.00;93351.47;6271289;22;20176;-62
2022/09/26 09:17:12;;;;;;;1999.90;999.90;;;;;;;18.06;100.00;93384.88;6232397;22;20199;-61
2022/09/26 09:19:50;;;;;;;1999.90;999.90;;;;;;;17.65;100.00;93390.03;6245003;23;20157;-61
2022/09/26 09:22:57;;;;;;;1999.90;999.90;;;;;;;17.49;100.00;93390.75;6271774;22;20169;-61
2022/09/26 09:25:47;;;;;;;1999.90;999.90;;;;;;;17.17;100.00;93405.09;6198532;23;20165;-61
2022/09/26 09:28:25;;;;;;;1999.90;999.90;;;;;;;18.32;100.00;93379.88;6274813;22;20175;-61
2022/09/26 09:31:03;;;;;;;1999.90;999.90;;;;;;;18.50;100.00;93391.19;6274399;22;20247;-60
2022/09/26 09:33:32;;;;;;;1999.90;999.90;;;;;;;18.06;100.00;93402.19;6248840;23;20176;-60
2022/09/26 09:36:07;;;;;;;1999.90;999.90;;;;;;;17.61;100.00;93421.88;6247991;23;20231;-61
2022/09/26 09:38:35;;;;;;;1999.90;999.90;;;;;;;17.50;100.00;93421.84;6248150;23;20168;-61
2022/09/26 09:41:25;;;;;;;1999.90;999.90;;;;;;;17.42;100.00;93440.13;6248005;22;20171;-61
2022/09/26 09:43:55;;;;;;;1999.90;999.90;;;;;;;17.13;100.00;93438.44;6274231;22;20157;-61
2022/09/26 09:46:27;;;;;;;1999.90;999.90;;;;;;;17.23;100.00;93433.47;6273738;22;20655;-61
2022/09/26 09:48:59;;;;;;;1999.90;999.90;;;;;;;17.28;100.00;93435.50;6248538;23;20236;-60
2022/09/26 09:51:36;;;;;;;1999.90;999.90;;;;;;;17.81;100.00;93407.91;6248105;23;20238;-61
2022/09/26 09:54:15;;;;;;;1999.90;999.90;;;;;;;18.58;100.00;93405.28;6274064;22;20181;-61
2022/09/26 09:57:18;;;;;;;1999.90;999.90;;;;;;;20.40;100.00;93358.28;6247943;23;20176;-61
2022/09/26 09:59:58;;;;;;;1999.90;999.90;;;;;;;21.59;100.00;93329.09;6274183;22;20165;-60
2022/09/26 10:02:52;;;;;;;1999.90;999.90;;;;;;;22.74;100.00;93426.13;6273958;22;20172;-60
2022/09/26 10:05:44;;;;;;;1999.90;999.90;;;;;;;22.68;100.00;93410.81;6273465;22;20197;-61
2022/09/26 10:08:35;;;;;;;1999.90;999.90;;;;;;;21.12;100.00;93536.13;6273454;22;20165;-60
2022/09/26 10:11:21;;;;;;;1999.90;999.90;;;;;;;20.05;100.00;93737.22;6217184;23;20596;-60
2022/09/26 10:13:50;;;;;;;1999.90;999.90;;;;;;;19.34;100.00;94007.25;6192298;23;20162;-60
2022/09/26 10:16:15;;;;;;;1999.90;999.90;;;;;;;20.40;100.00;94101.56;6191304;23;20165;-61
2022/09/26 10:18:55;;;;;;;1999.90;999.90;;;;;;;22.51;100.00;94195.88;6191273;23;20162;-60
2022/09/26 10:21:32;;;;;;;1999.90;999.90;;;;;;;23.33;100.00;94450.44;6191380;23;20670;-61
2022/09/26 10:24:00;;;;;;;1999.90;999.90;;;;;;;23.11;100.00;94333.41;6191429;23;20168;-60
2022/09/26 10:26:33;;;;;;;1999.90;999.90;;;;;;;21.51;100.00;94217.31;6191508;23;20196;-60
2022/09/26 10:29:05;;;;;;;1999.90;999.90;;;;;;;21.18;100.00;94186.69;6191994;23;20183;-60
2022/09/26 10:31:38;;;;;;;1999.90;999.90;;;;;;;20.38;100.00;94151.25;6191482;23;20162;-60
2022/09/26 10:34:22;;;;;;;1999.90;999.90;;;;;;;19.55;100.00;94075.13;6190296;23;20241;-60
2022/09/26 10:36:47;;;;;;;1999.90;999.90;;;;;;;19.04;100.00;94020.59;6190046;23;20189;-60
2022/09/26 10:42:01;;;;;;;1999.90;999.90;;;;;;;17.65;100.00;93811.69;6232036;23;20223;-59
2022/09/26 10:44:27;;;;;;;1999.90;999.90;;;;;;;16.50;100.00;93718.06;6245626;22;20172;-61
2022/09/26 10:46:57;;;;;;;1999.90;999.90;;;;;;;15.61;100.00;93314.25;6245442;23;20161;-61
2022/09/26 10:49:35;;;;;;;1999.90;999.90;;;;;;;14.89;100.00;93356.66;6246005;23;20212;-61
2022/09/26 10:52:15;;;;;;;1999.90;999.90;;;;;;;14.56;100.00;93507.28;6246733;23;20165;-60
2022/09/26 10:54:54;;;;;;;1999.90;999.90;;;;;;;14.63;100.00;93509.66;6246217;23;20185;-61
2022/09/26 10:57:34;;;;;;;1999.90;999.90;;;;;;;14.55;100.00;93477.53;6246196;23;20664;-61
2022/09/26 11:00:05;;;;;;;1999.90;999.90;;;;;;;14.52;100.00;93467.50;6246393;23;20169;-60
2022/09/26 11:02:31;;;;;;;1999.90;999.90;;;;;;;14.81;100.00;93440.75;6245987;23;20232;-60
2022/09/26 11:07:51;;;;;;;1999.90;999.90;;;;;;;15.06;100.00;93396.09;6247170;23;20164;-60
2022/09/26 11:10:24;;;;;;;1999.90;999.90;;;;;;;15.23;100.00;93380.56;6271559;22;20161;-62
2022/09/26 11:12:59;;;;;;;1999.90;999.90;;;;;;;15.32;100.00;93371.41;6246302;23;20220;-61
2022/09/26 11:15:25;;;;;;;1999.90;999.90;;;;;;;15.33;100.00;93370.16;6271082;22;20188;-62
2022/09/26 11:17:52;;;;;;;1999.90;999.90;;;;;;;15.27;100.00;93372.84;6245720;23;20165;-62
2022/09/26 11:20:28;;;;;;;1999.90;999.90;;;;;;;15.55;100.00;93365.72;6271640;22;20173;-62